Skip to main content

NOAA/GLERL Met Station at Muskegon, MI

Previous 5 days (top of hour only)
See also Previous 3 Hours (2 minute increments)
Jump down to Data
Switch to [English][Metric]
Zoom: Click and drag, Pan: shift-click and drag, Unzoom: double-click, Unzoom All






Note: Speed = mean wind during 2-minute period at top of hour,
Gust = max wind during 2-minute period at top of hour,
Peak = max wind during entire hour.
• See also 5-day windrose plot


NOAA/GLERL Met Station at Muskegon, MI

Previous 5 days (top of hour only)
See also Previous 3 Hours (2 minute increments)
Jump up to Graphs
Switch to [English][Metric]
                  Wind  Wind  Wind   Air   Dew   Rel     Sta   PAR
                   Spd   Gst   Dir  Temp    Pt   Hum    Pres uE/m2/
YYYY-MM-DD   EST   kts   kts   deg     F     F     %   in Hg   sec
2021-03-01 00:00 -99.0 -99.0   -99   0.0   0.0   0.0    0.00     0
2021-02-28 14:00  20.2  21.6   201  38.7  38.0  97.6   29.01   542
2021-02-28 13:00  17.5  19.1   184  41.2  40.3  96.6   29.05   374
2021-02-28 12:00   9.9  12.4   129  39.6  38.2  94.9   29.08   400
2021-02-28 11:00   7.2   9.9   126  39.6  35.8  86.1   29.11   264
2021-02-28 10:00  11.7  15.7   141  39.4  34.0  80.7   29.14    70
2021-02-28 09:00  10.5  12.8   133  38.5  31.7  76.4   29.17   125
2021-02-28 08:00  12.1  14.6   109  37.0  31.1  78.8   29.17   110
2021-02-28 07:00  12.6  15.6   107  35.1  31.7  87.3   29.20     2
2021-02-28 06:00  10.9  13.4    94  34.7  32.0  89.8   29.25     2
2021-02-28 05:00  11.7  13.2   107  34.7  32.5  91.6   29.30     2
2021-02-28 04:00  10.3  12.2    96  35.2  32.5  89.5   29.35     2
2021-02-28 03:00   8.2  10.5   122  34.2  31.6  90.2   29.38     2
2021-02-28 02:00   7.8   8.7   115  33.1  31.0  91.9   29.40     2
2021-02-28 01:00   7.8   8.7   109  33.3  30.9  90.9   29.42     2
2021-02-28 00:00   6.6   7.6   126  33.4  30.6  89.1   29.44     2
2021-02-27 23:00   8.0  10.9   161  35.6  32.0  86.7   29.45     2
2021-02-27 22:00   8.6   9.3   117  33.8  31.0  89.2   29.46     2
2021-02-27 21:00   6.8   7.6   127  34.7  31.7  88.8   29.46     2
2021-02-27 20:00   6.6   7.8   168  37.9  34.5  87.3   29.48     2
2021-02-27 19:00   6.8   8.0   167  36.9  35.2  93.7   29.47     2
2021-02-27 18:00  10.3  10.7   180  34.2  33.5  97.3   29.47   232
2021-02-27 17:00   9.1  11.3   177  31.8  31.1  97.3   29.47   262
2021-02-27 16:00  13.2  14.2   198  33.1  32.2  96.6   29.46   559
2021-02-27 15:00  13.6  14.8   187  33.4  31.9  94.0   29.44  1180
2021-02-27 14:00  12.1  13.4   187  33.4  31.2  91.5   29.42  1665
2021-02-27 13:00   5.6   6.6   246  37.6  32.7  82.2   29.41  1792
2021-02-27 12:00   8.2   8.9   193  35.1  32.2  89.3   29.39  1769
2021-02-27 11:00  10.5  10.7   212  35.8  33.3  90.4   29.36  1653
2021-02-27 10:00  10.9  11.3   211  34.3  33.5  96.5   29.33  1247
2021-02-27 09:00  11.1  12.1   191  33.1  32.3  97.1   29.29   895
2021-02-27 08:00   9.9  10.3   195  32.4  31.5  96.7   29.27   138
2021-02-27 07:00   9.1   9.3   216  32.0  31.0  95.9   29.25     2
2021-02-27 06:00   7.6   8.4   258  33.8  32.5  95.1   29.24     2
2021-02-27 05:00  11.5  12.4   270  33.4  32.5  96.2   29.23     2
2021-02-27 04:00   6.2   6.8   226  32.2  31.3  96.5   29.22     2
2021-02-27 03:00   7.4   8.4   202  32.0  30.7  95.0   29.23     2
2021-02-27 02:00   9.1  10.5   201  32.7  28.7  85.1   29.24     2
2021-02-27 01:00   6.6   8.0   168  36.3  22.8  57.7   29.22     2
2021-02-27 00:00   9.9  12.6   161  36.5  21.5  54.2   29.23     2
2021-02-26 23:00   9.5  12.1   154  36.5  19.4  49.5   29.27     2
2021-02-26 22:00   8.6  12.2   160  37.0  17.5  44.8   29.29     2
2021-02-26 21:00  10.9  15.0   150  37.8  16.1  41.0   29.31     2
2021-02-26 20:00   9.3  12.2   154  38.8  14.4  36.4   29.35     2
2021-02-26 19:00   7.4   8.9   143  39.0  14.5  36.4   29.37     2
2021-02-26 18:00  11.7  16.9   157  40.8  13.5  32.5   29.36   459
2021-02-26 17:00  11.3  14.8   161  43.2  14.2  30.5   29.41  1323
2021-02-26 16:00  13.2  14.8   175  42.6  15.1  32.4   29.45  1609
2021-02-26 15:00   8.4   9.5   183  37.6  26.1  62.8   29.48  1165
2021-02-26 14:00   8.2   9.9   191  37.0  26.2  64.5   29.52  1777
2021-02-26 13:00   6.0   7.6   195  35.8  26.3  68.2   29.57  1784
2021-02-26 12:00  11.9  13.0   195  34.5  24.9  67.6   29.62  1758
2021-02-26 11:00  16.3  18.7   195  33.3  25.9  74.1   29.64  1669
2021-02-26 10:00  18.1  19.4   196  32.2  26.9  80.5   29.66  1263
2021-02-26 09:00  11.9  13.4   192  30.4  26.0  83.6   29.62  1122
2021-02-26 08:00   3.3   4.9   118  27.9  25.0  88.7   29.59   290
2021-02-26 07:00  10.3  12.1   181  29.7  28.4  95.0   29.60     2
2021-02-26 06:00  10.5  11.5   178  30.4  29.0  94.5   29.64     2
2021-02-26 05:00   8.9   9.3   239  33.1  30.4  89.6   29.65     2
2021-02-26 04:00   9.7  10.3   236  32.9  30.2  89.5   29.65     2
2021-02-26 03:00   8.9   9.7   242  33.3  30.2  88.2   29.67     2
2021-02-26 02:00   7.6   8.2   221  31.6  29.6  92.0   29.67     2
2021-02-26 01:00   8.4   8.7   212  31.8  29.5  90.9   29.65     2
2021-02-26 00:00   5.2   6.0   217  31.6  28.8  89.1   29.66     2
2021-02-25 23:00   8.2   8.6   257  34.0  29.0  81.7   29.67     2
2021-02-25 22:00  11.5  12.2   235  33.3  30.2  88.5   29.66     2
2021-02-25 21:00   8.7   9.1   227  32.4  29.0  87.4   29.66     2
2021-02-25 20:00   9.9  10.3   233  32.9  28.5  83.7   29.66     2
2021-02-25 19:00   8.0   8.2   256  32.9  28.1  82.2   29.66     2
2021-02-25 18:00   3.9   4.9   282  34.0  28.2  79.1   29.65   453
2021-02-25 17:00   8.7   9.3   308  34.5  27.1  74.1   29.66  1251
2021-02-25 16:00   8.0   9.3   308  34.2  27.7  77.0   29.66  1564
2021-02-25 15:00  13.2  14.6   316  34.0  26.7  74.3   29.66  1012
2021-02-25 14:00  15.0  16.5   317  33.8  26.6  74.6   29.65  1784
2021-02-25 13:00  12.8  15.4   307  33.6  28.2  80.4   29.67  1791
2021-02-25 12:00  12.1  13.0   302  33.6  27.7  78.8   29.66  1750
2021-02-25 11:00  12.4  13.4   295  33.8  28.4  80.2   29.66  1663
2021-02-25 10:00  15.9  18.1   229  32.9  28.4  83.3   29.66  1173
2021-02-25 09:00  16.3  17.9   224  32.0  27.0  81.6   29.66   361
2021-02-25 08:00  14.6  15.7   216  30.9  24.4  76.6   29.64   330
2021-02-25 07:00  14.4  15.0   203  28.9  22.6  76.8   29.62     2
2021-02-25 06:00   9.5  10.3   196  27.3  22.7  82.5   29.62     2
2021-02-25 05:00   6.2   6.6   182  24.4  21.4  88.0   29.62     2
2021-02-25 04:00   2.5   2.5   200  25.0  22.7  90.8   29.62     2
2021-02-25 03:00   1.0   1.4    95  24.3  22.1  91.4   29.62     2
2021-02-25 02:00   3.5   4.1    78  25.7  22.0  85.8   29.62     2
2021-02-25 01:00   1.7   1.9    43  27.3  22.7  82.7   29.60     2
2021-02-25 00:00   3.9   4.9    34  28.4  23.5  81.7   29.58     2
2021-02-24 23:00   4.7   6.0    11  30.9  25.0  78.6   29.57     2
2021-02-24 22:00   7.4  10.3    48  30.9  26.1  82.1   29.54     2
2021-02-24 21:00   6.2   6.8   359  32.9  27.6  80.7   29.51     2
2021-02-24 20:00   7.0   9.1     9  33.6  27.4  77.7   29.48     2
2021-02-24 19:00  10.1  11.1   355  34.0  29.9  84.7   29.43     2
2021-02-24 18:00  12.4  16.1   352  35.6  29.1  77.0   29.39   549
2021-02-24 17:00  16.7  24.1     2  36.3  30.5  79.1   29.34  1294
2021-02-24 16:00  24.9  28.8   351  34.7  31.0  86.2   29.29   752
2021-02-24 15:00  21.8  24.5   348  35.4  30.8  83.2   29.21  1224
2021-02-24 14:00  20.8  25.3   351  34.2  32.3  92.8   29.18   470
2021-02-24 13:00  21.6  24.1   344  34.5  32.5  92.3   29.15   310
2021-02-24 12:00  19.6  22.4   328  34.7  32.9  93.1   29.11   355
2021-02-24 11:00  16.9  17.7   316  35.6  32.0  86.4   29.07   980
2021-02-24 10:00  14.2  15.6   289  36.0  33.1  89.1   29.03   749
2021-02-24 09:00  16.1  16.9   264  35.6  33.3  91.4   29.01   459
2021-02-24 08:00  15.0  16.1   241  35.6  33.4  91.5   28.99    61
2021-02-24 07:00  16.5  17.1   200  34.2  31.6  90.3   28.99     2
2021-02-24 06:00  17.1  17.7   196  35.6  31.2  83.7   29.00     2
2021-02-24 05:00  20.0  22.2   192  39.4  31.3  72.6   29.00     2
2021-02-24 04:00   8.2  13.0   158  39.2  30.8  71.5   29.01     2
2021-02-24 03:00  11.1  12.4   129  36.9  30.8  78.6   29.06     2
2021-02-24 02:00  12.4  15.0   167  40.1  31.3  70.6   29.12     2
2021-02-24 01:00  11.5  12.6   190  34.9  31.0  85.5   29.17     2
2021-02-24 00:00  12.8  15.2   186  35.4  31.4  85.0   29.18     2
2021-02-23 23:00  16.1  17.5   188  34.3  32.2  91.9   29.19     2
2021-02-23 22:00  10.3  11.1   192  35.1  32.3  89.6   29.20     2
2021-02-23 21:00   5.6   7.2   254  36.3  33.1  88.1   29.22     2
2021-02-23 20:00  10.7  10.9   225  34.7  32.3  91.0   29.23     2
2021-02-23 19:00   9.1  10.9   218  34.7  32.6  92.0   29.20     2